Time;durP1;ratioP1;P1;durP2;ratioP2;P2;SDS_P1;SDS_P2;PMS_P1;PMS_P2;Temp;Humidity;BMP_temperature;BMP_pressure;BME280_temperature;BME280_humidity;BME280_pressure;Samples;Min_cycle;Max_cycle;Signal;HPM_P1;HPM_P2
2021/05/05 00:00:26;;;;;;;1.60;0.65;;;;;;;-139.48;100.00;61774.03;4992543;28;20450;-65
2021/05/05 00:03:10;;;;;;;1.60;0.80;;;;;;;-139.48;100.00;61774.03;4993812;28;20108;-66
2021/05/05 00:05:54;;;;;;;1.40;0.80;;;;;;;-139.48;100.00;61774.03;4993782;28;20140;-65
2021/05/05 00:08:38;;;;;;;2.72;1.08;;;;;;;-139.48;100.00;61774.03;4993492;28;20046;-65
2021/05/05 00:11:22;;;;;;;2.42;0.98;;;;;;;-139.48;100.00;61774.03;4996502;28;20408;-66
2021/05/05 00:14:08;;;;;;;1.77;0.77;;;;;;;-139.48;100.00;61774.03;4996500;28;20088;-66
2021/05/05 00:16:52;;;;;;;3.30;1.00;;;;;;;-139.48;100.00;61774.03;4997343;28;20506;-65
2021/05/05 00:19:36;;;;;;;1.77;0.70;;;;;;;-139.48;100.00;61774.03;4982219;28;20053;-66
2021/05/05 00:22:20;;;;;;;1.38;1.00;;;;;;;-139.48;100.00;61774.03;4997349;28;20046;-65
2021/05/05 00:25:06;;;;;;;2.55;1.30;;;;;;;-139.48;100.00;61774.03;4997456;28;20045;-65
2021/05/05 00:27:50;;;;;;;3.03;1.10;;;;;;;-139.48;100.00;61774.03;4996209;28;20104;-66
2021/05/05 00:30:34;;;;;;;0.73;0.70;;;;;;;-139.48;100.00;61774.03;4996158;28;20522;-65
2021/05/05 00:33:18;;;;;;;3.00;0.82;;;;;;;-139.48;100.00;61774.03;4982598;28;20100;-65
2021/05/05 00:36:02;;;;;;;2.25;0.80;;;;;;;-139.48;100.00;61774.03;4996070;28;20561;-65
2021/05/05 00:38:46;;;;;;;;;;;;;;;-139.48;100.00;61774.03;4996277;28;20065;-65
2021/05/05 00:41:30;;;;;;;4.22;1.13;;;;;;;-139.48;100.00;61774.03;4982166;28;19984;-64
2021/05/05 00:44:16;;;;;;;3.97;1.10;;;;;;;-139.48;100.00;61774.03;4995857;28;20045;-65
2021/05/05 00:47:01;;;;;;;0.88;0.82;;;;;;;-139.48;100.00;61774.03;4995874;28;20044;-65
2021/05/05 00:49:45;;;;;;;4.30;1.27;;;;;;;-139.48;100.00;61774.03;4981955;28;20057;-64
2021/05/05 00:52:29;;;;;;;6.97;1.05;;;;;;;-139.48;100.00;61774.03;4996947;28;20044;-65
2021/05/05 00:55:14;;;;;;;4.13;1.10;;;;;;;-139.48;100.00;61774.03;4996921;28;20398;-65
2021/05/05 00:57:58;;;;;;;6.13;1.10;;;;;;;-139.48;100.00;61774.03;4995562;28;20101;-65
2021/05/05 01:00:43;;;;;;;2.25;1.05;;;;;;;-139.48;100.00;61774.03;4996401;28;20053;-65
2021/05/05 01:03:27;;;;;;;3.35;1.23;;;;;;;-139.48;100.00;61774.03;4996235;28;20105;-65
2021/05/05 01:06:11;;;;;;;9.25;1.27;;;;;;;-139.48;100.00;61774.03;4995261;28;20049;-65
2021/05/05 01:08:55;;;;;;;2.10;1.08;;;;;;;-139.48;100.00;61774.03;4996286;28;20045;-65
2021/05/05 01:11:40;;;;;;;1.38;0.95;;;;;;;-139.48;100.00;61774.03;4996171;28;20054;-65
2021/05/05 01:14:24;;;;;;;2.17;1.23;;;;;;;-139.48;100.00;61774.03;4996040;28;20057;-64
2021/05/05 01:17:08;;;;;;;3.30;1.27;;;;;;;-139.48;100.00;61774.03;4996236;28;20553;-65
2021/05/05 01:19:53;;;;;;;4.30;1.25;;;;;;;-139.48;100.00;61774.03;4995937;28;20048;-65
2021/05/05 01:22:37;;;;;;;2.38;1.20;;;;;;;-139.48;100.00;61774.03;4995246;28;20140;-65
2021/05/05 01:25:21;;;;;;;2.50;1.20;;;;;;;-139.48;100.00;61774.03;4995159;28;20104;-64
2021/05/05 01:28:05;;;;;;;1.85;1.20;;;;;;;-139.48;100.00;61774.03;4995069;28;20036;-64
2021/05/05 01:30:50;;;;;;;6.13;1.25;;;;;;;-139.48;100.00;61774.03;4996021;28;20395;-64
2021/05/05 01:33:34;;;;;;;4.32;1.85;;;;;;;-139.48;100.00;61774.03;4995988;28;20196;-65
2021/05/05 01:36:19;;;;;;;3.08;1.55;;;;;;;-139.48;100.00;61774.03;4995574;28;20108;-64
2021/05/05 01:39:23;;;;;;;3.78;1.20;;;;;;;-139.48;100.00;61774.03;4981287;28;20465;-64
2021/05/05 01:42:08;;;;;;;1.50;1.00;;;;;;;-139.48;100.00;61774.03;4995835;28;20096;-63
2021/05/05 01:44:52;;;;;;;7.05;1.73;;;;;;;-139.48;100.00;61774.03;4994759;28;20100;-61
2021/05/05 01:47:36;;;;;;;3.28;1.40;;;;;;;-139.48;100.00;61774.03;4994449;28;20410;-62
2021/05/05 01:50:20;;;;;;;2.78;1.52;;;;;;;-139.48;100.00;61774.03;4995623;28;20108;-61
2021/05/05 01:53:04;;;;;;;3.28;1.58;;;;;;;-139.48;100.00;61774.03;4994642;28;20056;-62
2021/05/05 01:55:49;;;;;;;3.28;1.70;;;;;;;-139.48;100.00;61774.03;4994233;28;20104;-62
2021/05/05 01:58:34;;;;;;;6.15;2.05;;;;;;;-139.48;100.00;61774.03;4995443;28;20057;-62
2021/05/05 02:01:18;;;;;;;3.90;1.63;;;;;;;-139.48;100.00;61774.03;5007875;23;20039;-64
2021/05/05 02:04:02;;;;;;;4.97;1.77;;;;;;;-139.48;100.00;61774.03;4994171;28;20077;-66
2021/05/05 02:06:46;;;;;;;2.95;1.73;;;;;;;-139.48;100.00;61774.03;4995295;28;20044;-66
2021/05/05 02:09:30;;;;;;;6.00;1.83;;;;;;;-139.48;100.00;61774.03;4995007;28;20101;-65
2021/05/05 02:12:15;;;;;;;2.63;1.92;;;;;;;-139.48;100.00;61774.03;4994151;28;20410;-66
2021/05/05 02:15:00;;;;;;;3.83;1.48;;;;;;;-139.48;100.00;61774.03;4994178;28;20410;-67
2021/05/05 02:17:44;;;;;;;4.97;1.50;;;;;;;-139.48;100.00;61774.03;4995011;28;20104;-64
2021/05/05 02:20:28;;;;;;;6.95;1.80;;;;;;;-139.48;100.00;61774.03;4994017;28;20057;-66
2021/05/05 02:23:12;;;;;;;8.65;1.60;;;;;;;-139.48;100.00;61774.03;4994950;28;20458;-65
2021/05/05 02:25:56;;;;;;;5.78;2.17;;;;;;;-139.48;100.00;61774.03;4994953;28;20411;-65
2021/05/05 02:28:40;;;;;;;6.00;2.28;;;;;;;-139.48;100.00;61774.03;4993922;28;20084;-66
2021/05/05 02:31:25;;;;;;;2.78;2.00;;;;;;;-139.48;100.00;61774.03;4993398;28;20054;-64
2021/05/05 02:34:09;;;;;;;9.60;2.40;;;;;;;-139.48;100.00;61774.03;4994779;28;20052;-67
2021/05/05 02:36:53;;;;;;;8.77;2.25;;;;;;;-139.48;100.00;61774.03;4993665;28;20407;-66
2021/05/05 02:39:41;;;;;;;11.07;2.45;;;;;;;-139.48;100.00;61774.03;4993555;28;20411;-66
2021/05/05 02:42:25;;;;;;;5.82;2.10;;;;;;;-139.48;100.00;61774.03;4994345;28;20132;-67
2021/05/05 02:45:09;;;;;;;5.38;2.47;;;;;;;-139.48;100.00;61774.03;4993654;28;20072;-65
2021/05/05 02:47:54;;;;;;;3.90;2.28;;;;;;;-139.48;100.00;61774.03;4994613;28;20072;-66
2021/05/05 02:50:38;;;;;;;5.72;2.58;;;;;;;-139.48;100.00;61774.03;4994576;28;20057;-66
2021/05/05 02:53:21;;;;;;;4.40;1.40;;;;;;;-139.48;100.00;61774.03;4994542;28;20053;-67
2021/05/05 02:56:06;;;;;;;8.30;2.13;;;;;;;-139.48;100.00;61774.03;4993361;28;20050;-66
2021/05/05 02:58:50;;;;;;;4.63;2.55;;;;;;;-139.48;100.00;61774.03;4979718;28;20057;-65
2021/05/05 03:01:34;;;;;;;3.45;2.22;;;;;;;-139.48;100.00;61774.03;4993408;28;20145;-67
2021/05/05 03:04:18;;;;;;;6.47;2.70;;;;;;;-139.48;100.00;61774.03;4994132;28;20069;-64
2021/05/05 03:07:02;;;;;;;4.18;3.00;;;;;;;-139.48;100.00;61774.03;4994109;28;20076;-67
2021/05/05 03:09:46;;;;;;;6.22;2.28;;;;;;;-139.48;100.00;61774.03;4993336;28;20052;-67
2021/05/05 03:12:29;;;;;;;4.97;2.13;;;;;;;-139.48;100.00;61774.03;4993906;28;20057;-67
2021/05/05 03:15:13;;;;;;;5.50;2.70;;;;;;;-139.48;100.00;61774.03;4993175;28;20081;-67
2021/05/05 03:17:57;;;;;;;11.48;2.95;;;;;;;-139.48;100.00;61774.03;4993863;28;20414;-67
2021/05/05 03:20:42;;;;;;;4.35;2.70;;;;;;;-139.48;100.00;61774.03;4994162;28;20406;-61
2021/05/05 03:23:27;;;;;;;5.50;2.05;;;;;;;-139.48;100.00;61774.03;4992918;28;20533;-67
2021/05/05 03:26:11;;;;;;;6.25;3.40;;;;;;;-139.48;100.00;61774.03;4993803;28;20418;-67
2021/05/05 03:28:55;;;;;;;3.25;1.90;;;;;;;-139.48;100.00;61774.03;4993114;28;20137;-66
2021/05/05 03:31:39;;;;;;;12.35;3.28;;;;;;;-139.48;100.00;61774.03;4993183;28;20056;-65
2021/05/05 03:34:23;;;;;;;4.50;2.38;;;;;;;-139.48;100.00;61774.03;4979274;28;20053;-65
2021/05/05 03:37:07;;;;;;;6.97;3.17;;;;;;;-139.48;100.00;61774.03;4992672;28;20052;-66
2021/05/05 03:39:50;;;;;;;7.13;3.13;;;;;;;-139.48;100.00;61774.03;4993706;28;20054;-66
2021/05/05 03:42:35;;;;;;;6.13;2.83;;;;;;;-139.48;100.00;61774.03;4992946;28;20045;-67
2021/05/05 03:45:19;;;;;;;3.92;2.72;;;;;;;-139.48;100.00;61774.03;4996343;28;20101;-67
2021/05/05 03:48:03;;;;;;;4.68;2.55;;;;;;;-139.48;100.00;61774.03;4997642;28;20044;-66
2021/05/05 03:50:48;;;;;;;6.53;2.78;;;;;;;-139.48;100.00;61774.03;4996663;28;20049;-67
2021/05/05 03:53:32;;;;;;;7.47;2.80;;;;;;;-139.48;100.00;61774.03;4997630;28;20113;-66
2021/05/05 03:56:15;;;;;;;7.00;2.15;;;;;;;-139.48;100.00;61774.03;4997460;28;20053;-66
2021/05/05 03:58:59;;;;;;;8.23;2.70;;;;;;;-139.48;100.00;61774.03;4996972;28;20057;-66
2021/05/05 04:01:43;;;;;;;4.88;2.50;;;;;;;-139.48;100.00;61774.03;4996238;28;20053;-66
2021/05/05 04:04:27;;;;;;;4.63;2.60;;;;;;;-139.48;100.00;61774.03;4996787;28;20058;-67
2021/05/05 04:07:11;;;;;;;5.13;2.40;;;;;;;-139.48;100.00;61774.03;4996545;28;20049;-67
2021/05/05 04:09:55;;;;;;;7.78;2.72;;;;;;;-139.48;100.00;61774.03;4997241;28;20048;-67
2021/05/05 04:12:40;;;;;;;4.18;2.53;;;;;;;-139.48;100.00;61774.03;4997611;28;20120;-65
2021/05/05 04:15:24;;;;;;;3.80;2.40;;;;;;;-139.48;100.00;61774.03;4996478;28;20113;-67
2021/05/05 04:18:08;;;;;;;4.85;2.35;;;;;;;-139.48;100.00;61774.03;4997027;28;20085;-66
2021/05/05 04:20:57;;;;;;;8.55;3.20;;;;;;;-139.48;100.00;61774.03;4997193;28;20057;-67
2021/05/05 04:23:41;;;;;;;5.45;2.90;;;;;;;-139.48;100.00;61774.03;4996961;28;20133;-65
2021/05/05 04:26:25;;;;;;;4.68;3.10;;;;;;;-139.48;100.00;61774.03;4996209;28;20065;-67
2021/05/05 04:29:09;;;;;;;6.50;3.25;;;;;;;-139.48;100.00;61774.03;4996916;28;20476;-67
2021/05/05 04:31:54;;;;;;;6.20;3.13;;;;;;;-139.48;100.00;61774.03;4997037;28;20160;-67
2021/05/05 04:34:40;;;;;;;4.57;2.78;;;;;;;-139.48;100.00;61774.03;4997048;28;20057;-67
2021/05/05 04:37:24;;;;;;;4.10;2.75;;;;;;;-139.48;100.00;61774.03;4982323;28;20411;-67
2021/05/05 04:40:08;;;;;;;11.32;3.83;;;;;;;-139.48;100.00;61774.03;4995709;28;20233;-65
2021/05/05 04:42:52;;;;;;;3.97;2.80;;;;;;;-139.48;100.00;61774.03;4995677;28;20100;-65
2021/05/05 04:45:36;;;;;;;4.97;2.90;;;;;;;-139.48;100.00;61774.03;4996572;28;20049;-67
2021/05/05 04:48:20;;;;;;;6.97;2.55;;;;;;;-139.48;100.00;61774.03;4995812;28;20073;-67
2021/05/05 04:51:04;;;;;;;6.43;3.00;;;;;;;-139.48;100.00;61774.03;4982141;28;20063;-67
2021/05/05 04:53:48;;;;;;;9.13;3.25;;;;;;;-139.48;100.00;61774.03;4996702;28;20053;-67
2021/05/05 04:56:32;;;;;;;5.82;3.17;;;;;;;-139.48;100.00;61774.03;4995426;28;20100;-66
2021/05/05 04:59:16;;;;;;;6.20;3.08;;;;;;;-139.48;100.00;61774.03;4995499;28;20490;-67
2021/05/05 05:02:00;;;;;;;6.07;3.13;;;;;;;-139.48;100.00;61774.03;4981843;28;20434;-66
2021/05/05 05:04:44;;;;;;;9.23;2.72;;;;;;;-139.48;100.00;61774.03;4996606;28;20056;-66
2021/05/05 05:07:28;;;;;;;8.15;3.10;;;;;;;-139.48;100.00;61774.03;4995424;28;20294;-67
2021/05/05 05:10:12;;;;;;;3.65;2.15;;;;;;;-139.48;100.00;61774.03;4996766;28;20052;-66
2021/05/05 05:12:56;;;;;;;4.43;2.60;;;;;;;-139.48;100.00;61774.03;4995064;28;20049;-67
2021/05/05 05:15:40;;;;;;;7.97;2.42;;;;;;;-139.48;100.00;61774.03;4996022;28;20049;-66
2021/05/05 05:18:24;;;;;;;12.25;2.47;;;;;;;-139.48;100.00;61774.03;4996010;28;20065;-66
2021/05/05 05:21:08;;;;;;;5.40;2.88;;;;;;;-139.48;100.00;61774.03;4981644;28;20100;-67
2021/05/05 05:23:52;;;;;;;6.53;2.22;;;;;;;-139.48;100.00;61774.03;4994872;28;20133;-67
2021/05/05 05:26:36;;;;;;;5.10;2.25;;;;;;;-139.48;100.00;61774.03;4995140;28;20081;-65
2021/05/05 05:29:20;;;;;;;8.40;2.22;;;;;;;-139.48;100.00;61774.03;4995787;28;20099;-67
2021/05/05 05:32:04;;;;;;;5.68;2.78;;;;;;;-139.48;100.00;61774.03;4996104;28;20049;-67
2021/05/05 05:34:48;;;;;;;6.22;2.53;;;;;;;-139.48;100.00;61774.03;4981408;28;20116;-67
2021/05/05 05:37:32;;;;;;;9.02;2.60;;;;;;;-139.48;100.00;61774.03;4981051;28;20057;-67
2021/05/05 05:40:17;;;;;;;5.30;2.53;;;;;;;-139.48;100.00;61774.03;4995661;28;20607;-67
2021/05/05 05:43:02;;;;;;;6.55;2.53;;;;;;;-139.48;100.00;61774.03;4994741;28;20526;-67
2021/05/05 05:45:46;;;;;;;4.40;2.20;;;;;;;-139.48;100.00;61774.03;4994504;28;20069;-67
2021/05/05 05:48:30;;;;;;;6.80;2.38;;;;;;;-139.48;100.00;61774.03;4995401;28;20498;-67
2021/05/05 05:51:14;;;;;;;7.18;2.22;;;;;;;-139.48;100.00;61774.03;4994307;28;20113;-67
2021/05/05 05:53:58;;;;;;;4.68;1.92;;;;;;;-139.48;100.00;61774.03;4995321;28;20057;-67
2021/05/05 05:56:42;;;;;;;6.05;1.90;;;;;;;-139.48;100.00;61774.03;4994405;28;20129;-67
2021/05/05 05:59:26;;;;;;;10.38;3.05;;;;;;;-139.48;100.00;61774.03;4994537;28;20045;-67
2021/05/05 06:02:10;;;;;;;8.98;2.42;;;;;;;-139.48;100.00;61774.03;4994093;28;20085;-68
2021/05/05 06:04:54;;;;;;;7.75;2.72;;;;;;;-139.48;100.00;61774.03;4994397;28;20049;-65
2021/05/05 06:07:38;;;;;;;7.18;2.17;;;;;;;-139.48;100.00;61774.03;4993521;28;20135;-68
2021/05/05 06:10:22;;;;;;;8.80;2.25;;;;;;;-139.48;100.00;61774.03;4995247;28;20462;-67
2021/05/05 06:13:06;;;;;;;9.15;2.58;;;;;;;-139.48;100.00;61774.03;4993894;28;20477;-65
2021/05/05 06:15:50;;;;;;;6.28;1.60;;;;;;;-139.48;100.00;61774.03;4995186;28;20088;-67
2021/05/05 06:18:34;;;;;;;5.80;1.90;;;;;;;-139.48;100.00;61774.03;4994172;28;20048;-67
2021/05/05 06:21:18;;;;;;;8.38;2.20;;;;;;;-139.48;100.00;61774.03;4995015;28;20053;-67
2021/05/05 06:24:04;;;;;;;8.55;2.40;;;;;;;-139.48;100.00;61774.03;4993731;28;20052;-65
2021/05/05 06:26:48;;;;;;;10.30;2.25;;;;;;;-139.48;100.00;61774.03;4994253;28;20205;-66
2021/05/05 06:29:32;;;;;;;3.42;1.92;;;;;;;-139.48;100.00;61774.03;4994915;28;20065;-65
2021/05/05 06:32:16;;;;;;;6.20;1.90;;;;;;;-139.48;100.00;61774.03;4994611;28;20080;-68
2021/05/05 06:35:00;;;;;;;6.68;1.92;;;;;;;-139.48;100.00;61774.03;4994553;28;20129;-67
2021/05/05 06:37:44;;;;;;;5.90;1.45;;;;;;;-139.48;100.00;61774.03;4979822;28;20101;-67
2021/05/05 06:40:28;;;;;;;7.97;1.95;;;;;;;-139.48;100.00;61774.03;4994741;28;20073;-67
2021/05/05 06:43:12;;;;;;;6.57;1.77;;;;;;;-139.48;100.00;61774.03;4994341;28;20136;-65
2021/05/05 06:45:56;;;;;;;8.13;2.58;;;;;;;-139.48;100.00;61774.03;4993363;28;20054;-67
2021/05/05 06:48:40;;;;;;;3.78;1.40;;;;;;;-139.48;100.00;61774.03;4979650;28;20105;-67
2021/05/05 06:51:25;;;;;;;6.03;1.85;;;;;;;-139.48;100.00;61774.03;4994175;28;20105;-66
2021/05/05 06:54:09;;;;;;;11.02;2.28;;;;;;;-139.48;100.00;61774.03;4994506;28;20050;-67
2021/05/05 06:56:53;;;;;;;13.38;2.40;;;;;;;-139.48;100.00;61774.03;4993277;28;20100;-67
2021/05/05 06:59:37;;;;;;;7.25;2.05;;;;;;;-139.48;100.00;61774.03;4993226;28;20514;-68
2021/05/05 07:02:21;;;;;;;11.82;2.00;;;;;;;-139.48;100.00;61774.03;4993023;28;20053;-68
2021/05/05 07:05:05;;;;;;;7.30;1.67;;;;;;;-139.48;100.00;61774.03;4994066;28;20057;-68
2021/05/05 07:07:49;;;;;;;10.13;2.33;;;;;;;-139.48;100.00;61774.03;4993096;28;20058;-67
2021/05/05 07:10:33;;;;;;;9.48;2.38;;;;;;;-139.48;100.00;61774.03;4979578;28;20049;-67
2021/05/05 07:13:18;;;;;;;7.43;1.90;;;;;;;-139.48;100.00;61774.03;4994507;28;20509;-68
2021/05/05 07:16:02;;;;;;;12.00;2.60;;;;;;;-139.48;100.00;61774.03;4992839;28;20545;-64
2021/05/05 07:18:47;;;;;;;8.57;2.20;;;;;;;-139.48;100.00;61774.03;4993085;28;20100;-68
2021/05/05 07:21:31;;;;;;;8.20;2.25;;;;;;;-139.48;100.00;61774.03;4994065;28;20053;-67
2021/05/05 07:24:15;;;;;;;8.25;2.45;;;;;;;-139.48;100.00;61774.03;4979576;28;20161;-66
2021/05/05 07:26:59;;;;;;;7.60;2.15;;;;;;;-139.48;100.00;61774.03;4993789;28;20057;-68
2021/05/05 07:29:43;;;;;;;13.07;2.70;;;;;;;-139.48;100.00;61774.03;4993057;28;20053;-68
2021/05/05 07:32:27;;;;;;;9.32;2.22;;;;;;;-139.48;100.00;61774.03;4979020;28;20134;-68
2021/05/05 07:35:11;;;;;;;13.10;2.15;;;;;;;-139.48;100.00;61774.03;4993745;28;20128;-68
2021/05/05 07:44:09;;;;;;;7.90;1.80;;;;;;;-139.48;100.00;61774.03;4993981;28;20587;-68
2021/05/05 07:49:38;;;;;;;8.20;2.03;;;;;;;-139.48;100.00;61774.03;4993174;28;20525;-64
2021/05/05 07:52:22;;;;;;;3.63;1.65;;;;;;;-139.48;100.00;61774.03;4979730;28;20539;-66
2021/05/05 07:55:08;;;;;;;9.75;1.98;;;;;;;-139.48;100.00;61774.03;4993057;28;20515;-68
2021/05/05 07:57:52;;;;;;;9.15;1.95;;;;;;;-139.48;100.00;61774.03;4992407;28;20050;-68
2021/05/05 08:00:36;;;;;;;7.53;2.13;;;;;;;-139.48;100.00;61774.03;4993731;28;20093;-67
2021/05/05 08:03:20;;;;;;;3.28;1.45;;;;;;;-139.48;100.00;61774.03;5008168;22;20050;-66
2021/05/05 08:06:05;;;;;;;9.73;2.10;;;;;;;-139.48;100.00;61774.03;4992759;28;20042;-66
2021/05/05 08:08:49;;;;;;;7.07;1.83;;;;;;;-139.48;100.00;61774.03;4992775;28;20065;-66
2021/05/05 08:11:33;;;;;;;7.63;1.55;;;;;;;-139.48;100.00;61774.03;4992547;28;20181;-66
2021/05/05 08:14:18;;;;;;;8.68;2.15;;;;;;;-139.48;100.00;61774.03;4973046;28;20555;-67
2021/05/05 08:17:02;;;;;;;7.30;2.13;;;;;;;-139.48;100.00;61774.03;4973343;28;20045;-67
2021/05/05 08:19:46;;;;;;;13.80;2.50;;;;;;;-139.48;100.00;61774.03;4959500;28;20065;-67
2021/05/05 08:22:30;;;;;;;9.88;2.70;;;;;;;-139.48;100.00;61774.03;4973175;28;20050;-67
2021/05/05 08:25:14;;;;;;;8.13;2.05;;;;;;;-139.48;100.00;61774.03;4973183;28;20049;-67
2021/05/05 08:27:59;;;;;;;9.57;1.83;;;;;;;-139.48;100.00;61774.03;4973364;28;20125;-67
2021/05/05 08:30:42;;;;;;;;;;;;;;;-139.48;100.00;61774.03;4962303;28;20058;-67
2021/05/05 08:33:26;;;;;;;10.60;2.50;;;;;;;-139.48;100.00;61774.03;4976673;28;19925;-66
2021/05/05 08:36:10;;;;;;;5.50;1.88;;;;;;;-139.48;100.00;61774.03;4977551;28;20423;-66
2021/05/05 08:38:55;;;;;;;6.82;1.95;;;;;;;-139.48;100.00;61774.03;4977539;28;20054;-66
2021/05/05 08:41:39;;;;;;;3.63;1.85;;;;;;;-139.48;100.00;61774.03;4977394;28;20098;-67
2021/05/05 08:44:24;;;;;;;6.03;1.98;;;;;;;-139.48;100.00;61774.03;4976167;28;20096;-67
2021/05/05 08:47:08;;;;;;;7.78;1.70;;;;;;;-139.48;100.00;61774.03;4977121;28;20466;-67
2021/05/05 08:49:51;;;;;;;6.82;1.92;;;;;;;-139.48;100.00;61774.03;4976652;28;20050;-66
2021/05/05 08:52:37;;;;;;;11.40;2.88;;;;;;;-139.48;100.00;61774.03;4976183;28;20050;-67
2021/05/05 08:55:23;;;;;;;4.22;1.77;;;;;;;-139.48;100.00;61774.03;4976103;28;20090;-67
2021/05/05 08:58:06;;;;;;;8.60;2.22;;;;;;;-139.48;100.00;61774.03;4976005;28;20097;-67
2021/05/05 09:00:50;;;;;;;4.88;1.85;;;;;;;-139.48;100.00;61774.03;4976454;28;20069;-66
2021/05/05 09:03:40;;;;;;;4.97;1.83;;;;;;;-139.48;100.00;61774.03;4975759;28;20562;-67
2021/05/05 09:06:51;;;;;;;11.52;1.98;;;;;;;-139.48;100.00;61774.03;4977087;28;20518;-67
2021/05/05 09:09:36;;;;;;;5.65;1.90;;;;;;;-139.48;100.00;61774.03;4976101;28;20042;-67
2021/05/05 09:12:23;;;;;;;6.47;2.45;;;;;;;-139.48;100.00;61774.03;4976863;28;20093;-67
2021/05/05 09:15:12;;;;;;;7.32;2.10;;;;;;;-139.48;100.00;61774.03;4976930;28;20061;-66
2021/05/05 09:17:56;;;;;;;5.43;1.42;;;;;;;-139.48;100.00;61774.03;4976808;28;20054;-67
2021/05/05 09:20:40;;;;;;;9.93;1.83;;;;;;;-139.48;100.00;61774.03;4962160;28;20065;-66
2021/05/05 09:23:24;;;;;;;5.10;2.13;;;;;;;-139.48;100.00;61774.03;4976507;28;20045;-66
2021/05/05 09:26:08;;;;;;;6.72;2.30;;;;;;;-139.48;100.00;61774.03;4975787;28;20086;-66
2021/05/05 09:28:52;;;;;;;2.70;1.50;;;;;;;-139.48;100.00;61774.03;4975385;28;20419;-66
2021/05/05 09:31:38;;;;;;;7.60;2.00;;;;;;;-139.48;100.00;61774.03;4976656;28;20416;-67
2021/05/05 09:34:25;;;;;;;4.00;2.03;;;;;;;-139.48;100.00;61774.03;4975302;28;20046;-67
2021/05/05 09:37:11;;;;;;;5.10;1.80;;;;;;;-139.48;100.00;61774.03;4975320;28;20096;-67
2021/05/05 09:40:09;;;;;;;5.22;1.15;;;;;;;-139.48;100.00;61774.03;4975217;28;20053;-66
2021/05/05 09:42:53;;;;;;;7.47;1.42;;;;;;;-139.48;100.00;61774.03;4962339;28;20100;-65
2021/05/05 09:45:37;;;;;;;3.33;0.98;;;;;;;-139.48;100.00;61774.03;4961988;28;20117;-65
2021/05/05 09:48:23;;;;;;;1.38;0.93;;;;;;;-139.48;100.00;61774.03;4961346;28;20050;-64
2021/05/05 09:51:06;;;;;;;3.80;1.25;;;;;;;-139.48;100.00;61774.03;4975999;28;20185;-65
2021/05/05 09:53:54;;;;;;;5.60;1.50;;;;;;;-139.48;100.00;61774.03;4975122;28;20181;-65
2021/05/05 09:56:38;;;;;;;3.35;1.40;;;;;;;-139.48;100.00;61774.03;4975825;28;20053;-65
2021/05/05 09:59:22;;;;;;;1.30;0.73;;;;;;;-139.48;100.00;61774.03;4961418;28;20061;-67
2021/05/05 10:02:06;;;;;;;3.55;1.40;;;;;;;-139.48;100.00;61774.03;4974842;28;20483;-65
2021/05/05 10:05:21;;;;;;;6.28;1.60;;;;;;;-139.48;100.00;61774.03;4974858;28;20183;-65
2021/05/05 10:08:09;;;;;;;5.50;1.58;;;;;;;-139.48;100.00;61774.03;4975976;28;20095;-65
2021/05/05 10:10:53;;;;;;;7.70;3.28;;;;;;;-139.48;100.00;61774.03;4961228;28;20085;-65
2021/05/05 10:13:38;;;;;;;1.77;1.50;;;;;;;-139.48;100.00;61774.03;4961083;28;20053;-65
2021/05/05 10:16:22;;;;;;;4.72;1.95;;;;;;;-139.48;100.00;61774.03;4974697;28;20057;-65
2021/05/05 10:19:08;;;;;;;4.13;1.80;;;;;;;-139.48;100.00;61774.03;4961306;28;20045;-65
2021/05/05 10:21:54;;;;;;;4.97;2.15;;;;;;;-139.48;100.00;61774.03;4974584;28;20053;-66
2021/05/05 10:24:42;;;;;;;2.45;1.30;;;;;;;-139.48;100.00;61774.03;4975353;28;20054;-66
2021/05/05 10:27:26;;;;;;;3.53;1.52;;;;;;;-139.48;100.00;61774.03;4974615;28;20415;-66
2021/05/05 10:30:16;;;;;;;2.63;1.20;;;;;;;-139.48;100.00;61774.03;4974560;28;20096;-66
2021/05/05 10:33:00;;;;;;;2.60;1.80;;;;;;;-139.48;100.00;61774.03;4974308;28;20411;-65
2021/05/05 10:35:44;;;;;;;10.00;1.80;;;;;;;-139.48;100.00;61774.03;4975444;28;20467;-65
2021/05/05 10:38:33;;;;;;;4.35;1.90;;;;;;;-139.48;100.00;61774.03;4974026;28;20097;-65
2021/05/05 10:41:20;;;;;;;2.17;1.05;;;;;;;-139.48;100.00;61774.03;4974390;28;20054;-66
2021/05/05 10:44:04;;;;;;;6.00;1.58;;;;;;;-139.48;100.00;61774.03;4975244;28;20049;-66
2021/05/05 10:46:49;;;;;;;2.15;1.52;;;;;;;-139.48;100.00;61774.03;4960552;28;20510;-66
2021/05/05 10:49:32;;;;;;;5.57;1.70;;;;;;;-139.48;100.00;61774.03;4974807;28;20053;-66
2021/05/05 10:52:16;;;;;;;2.67;1.02;;;;;;;-139.48;100.00;61774.03;4973788;28;20054;-65
2021/05/05 10:55:03;;;;;;;2.88;1.40;;;;;;;-139.48;100.00;61774.03;4973597;28;20054;-66
2021/05/05 10:58:09;;;;;;;4.70;1.38;;;;;;;-139.48;100.00;61774.03;4973562;28;20050;-66
2021/05/05 11:00:58;;;;;;;3.10;1.50;;;;;;;-139.48;100.00;61774.03;4974910;28;20519;-66
2021/05/05 11:03:42;;;;;;;7.13;1.50;;;;;;;-139.48;100.00;61774.03;4974830;28;20081;-66
2021/05/05 11:06:29;;;;;;;4.78;1.48;;;;;;;-139.48;100.00;61774.03;4974616;28;20053;-66
2021/05/05 11:09:13;;;;;;;4.25;1.80;;;;;;;-139.48;100.00;61774.03;4974627;28;20045;-66
2021/05/05 11:11:57;;;;;;;5.60;1.80;;;;;;;-139.48;100.00;61774.03;4974769;28;20053;-66
2021/05/05 11:14:45;;;;;;;4.38;1.60;;;;;;;-139.48;100.00;61774.03;4973844;28;20170;-67
2021/05/05 11:17:29;;;;;;;2.35;1.23;;;;;;;-139.48;100.00;61774.03;4973689;28;20045;-66
2021/05/05 11:20:38;;;;;;;3.80;1.30;;;;;;;-139.48;100.00;61774.03;4974614;28;20054;-67
2021/05/05 11:23:34;;;;;;;5.57;1.45;;;;;;;-139.48;100.00;61774.03;4973569;28;20089;-66
2021/05/05 11:26:23;;;;;;;6.20;1.70;;;;;;;-139.48;100.00;61774.03;4974563;28;20056;-66
2021/05/05 11:29:11;;;;;;;3.28;1.20;;;;;;;-139.48;100.00;61774.03;4974692;28;20546;-66
2021/05/05 11:31:55;;;;;;;1.42;1.25;;;;;;;-139.48;100.00;61774.03;4973685;28;20121;-67
2021/05/05 11:34:43;;;;;;;3.80;1.27;;;;;;;-139.48;100.00;61774.03;4973397;28;20173;-67
2021/05/05 11:37:28;;;;;;;3.67;1.48;;;;;;;-139.48;100.00;61774.03;4959773;28;20054;-67
2021/05/05 11:40:13;;;;;;;3.92;1.40;;;;;;;-139.48;100.00;61774.03;4974225;28;20093;-67
2021/05/05 11:42:57;;;;;;;3.88;1.20;;;;;;;-139.48;100.00;61774.03;4973251;28;20121;-67
2021/05/05 11:45:50;;;;;;;4.53;1.20;;;;;;;-139.48;100.00;61774.03;4959844;28;20097;-67
2021/05/05 11:48:37;;;;;;;2.90;1.30;;;;;;;-139.48;100.00;61774.03;4973224;28;20049;-66
2021/05/05 11:51:24;;;;;;;3.45;1.10;;;;;;;-139.48;100.00;61774.03;4973233;28;20106;-66
2021/05/05 11:54:11;;;;;;;5.03;1.15;;;;;;;-139.48;100.00;61774.03;4973402;28;20089;-66
2021/05/05 11:57:05;;;;;;;3.67;0.80;;;;;;;-139.48;100.00;61774.03;4974169;28;20098;-67
2021/05/05 11:59:49;;;;;;;2.95;1.55;;;;;;;-139.48;100.00;61774.03;4959732;28;20061;-66
2021/05/05 12:02:42;;;;;;;2.80;0.80;;;;;;;-139.48;100.00;61774.03;4959206;28;20053;-67
2021/05/05 12:05:46;;;;;;;2.25;0.82;;;;;;;-139.48;100.00;61774.03;4976184;28;20046;-67
2021/05/05 12:08:30;;;;;;;3.22;1.13;;;;;;;-139.48;100.00;61774.03;4963735;28;20122;-67
2021/05/05 12:11:19;;;;;;;1.92;0.70;;;;;;;-139.48;100.00;61774.03;4977022;28;20419;-67
2021/05/05 12:14:03;;;;;;;1.70;0.75;;;;;;;-139.48;100.00;61774.03;4977034;28;20503;-67
2021/05/05 12:16:47;;;;;;;2.75;0.95;;;;;;;-139.48;100.00;61774.03;4976970;28;20057;-67
2021/05/05 12:19:31;;;;;;;1.88;0.80;;;;;;;-139.48;100.00;61774.03;4963282;28;20083;-67
2021/05/05 12:22:15;;;;;;;3.53;0.70;;;;;;;-139.48;100.00;61774.03;4976816;28;20085;-67
2021/05/05 12:25:16;;;;;;;2.38;1.00;;;;;;;-139.48;100.00;61774.03;4976899;28;20574;-67
2021/05/05 12:28:18;;;;;;;2.08;0.90;;;;;;;-139.48;100.00;61774.03;4963792;28;20109;-67
2021/05/05 12:31:02;;;;;;;2.45;1.08;;;;;;;-139.48;100.00;61774.03;4977692;28;20184;-67
2021/05/05 12:33:47;;;;;;;2.33;1.00;;;;;;;-139.48;100.00;61774.03;4977876;28;20177;-67
2021/05/05 12:36:38;;;;;;;1.92;0.90;;;;;;;-139.48;100.00;61774.03;4976303;28;20053;-66
2021/05/05 12:39:23;;;;;;;4.38;1.40;;;;;;;-139.48;100.00;61774.03;4976309;28;20104;-67